Adak, Alaska
Current Conditions -  °F | °C
As of 7:56 AM on Sunday 21 Dec 2014 (Local Time) from PADK Reporting Station
Overcast Overcast  
Wind Chill:   Ceiling: 2600
Heat Index:   Visibility: 10mi
Dew Point:   Wind: 8mph
Humidity: 93%   Direction: 330°NNW
Pressure: 29.66"   Gusts: NA
Location:  51.88°N, 176.66°W
Report Text: PADK 211756Z AUTO 33007KT 300V010 10SM SCT017 BKN026 OVC038 03/02 A2966 RMK AO1 60002 10040 20030 52037
Loading
Personal Weather Stations






























Interactive Weather Map New forecast layout! Learn more

10-Day Weather Forecast

Advertisements
Track Severe Weather on mobile